createdAt,value
2022-12-03T00:02:07.067Z,3.20
2022-12-03T00:04:34.519Z,3.20
2022-12-03T00:07:01.814Z,3.10
2022-12-03T00:09:29.150Z,2.80
2022-12-03T00:11:56.444Z,2.90
2022-12-03T00:14:24.176Z,2.90
2022-12-03T00:16:51.452Z,3.00
2022-12-03T00:19:18.738Z,3.00
2022-12-03T00:21:46.047Z,3.00
2022-12-03T00:24:13.401Z,3.10
2022-12-03T00:26:40.748Z,3.10
2022-12-03T00:29:08.002Z,3.10
2022-12-03T00:31:35.362Z,3.10
2022-12-03T00:34:02.790Z,3.10
2022-12-03T00:36:30.094Z,3.10
2022-12-03T00:38:57.401Z,3.10
2022-12-03T00:41:24.737Z,3.00
2022-12-03T00:43:52.113Z,3.00
2022-12-03T00:46:21.518Z,3.00
2022-12-03T00:48:49.215Z,3.00
2022-12-03T00:51:16.514Z,3.00
2022-12-03T00:53:43.825Z,3.00
2022-12-03T00:56:11.102Z,3.00
2022-12-03T00:58:38.395Z,3.00
2022-12-03T01:01:05.840Z,3.00
2022-12-03T01:03:33.131Z,3.00
2022-12-03T01:06:00.457Z,3.00
2022-12-03T01:08:27.725Z,2.90
2022-12-03T01:10:55.034Z,2.90
2022-12-03T01:13:22.315Z,2.90
2022-12-03T01:15:49.679Z,2.90
2022-12-03T01:18:16.998Z,2.90
2022-12-03T01:20:44.332Z,2.80
2022-12-03T01:23:13.677Z,2.80
2022-12-03T01:25:40.996Z,2.60
2022-12-03T01:28:08.334Z,2.70
2022-12-03T01:30:55.659Z,2.60
2022-12-03T01:33:22.961Z,2.50
2022-12-03T01:35:50.250Z,2.50
2022-12-03T01:38:17.670Z,2.50
2022-12-03T01:40:45.159Z,2.40
2022-12-03T01:43:12.427Z,2.40
2022-12-03T01:45:39.710Z,2.30
2022-12-03T01:48:06.978Z,2.10
2022-12-03T01:50:34.285Z,2.20
2022-12-03T01:53:02.221Z,2.20
2022-12-03T01:55:29.538Z,2.20
2022-12-03T01:57:58.975Z,2.30
2022-12-03T02:00:27.237Z,2.30
2022-12-03T02:03:01.358Z,2.40
2022-12-03T02:05:32.549Z,2.40
2022-12-03T02:08:00.090Z,2.40
2022-12-03T02:10:32.835Z,2.30
2022-12-03T02:13:02.941Z,2.20
2022-12-03T02:15:30.202Z,2.20
2022-12-03T02:17:57.724Z,2.10
2022-12-03T02:20:25.094Z,2.10
2022-12-03T02:23:12.018Z,2.20
2022-12-03T02:25:39.347Z,2.30
2022-12-03T02:28:07.719Z,2.30
2022-12-03T02:30:35.186Z,2.20
2022-12-03T02:33:02.465Z,2.10
2022-12-03T02:35:34.134Z,2.20
2022-12-03T02:38:13.663Z,2.20
2022-12-03T02:40:41.123Z,2.30
2022-12-03T02:43:09.692Z,2.30
2022-12-03T02:45:39.662Z,2.30
2022-12-03T02:48:11.631Z,2.20
2022-12-03T02:50:43.962Z,2.20
2022-12-03T02:53:17.690Z,2.20
2022-12-03T02:55:44.988Z,2.20
2022-12-03T02:58:12.322Z,2.20
2022-12-03T03:00:39.658Z,2.20
2022-12-03T03:03:06.996Z,2.20
2022-12-03T03:05:35.015Z,2.30
2022-12-03T03:08:02.353Z,2.30
2022-12-03T03:10:29.704Z,2.30
2022-12-03T03:12:57.485Z,2.30
2022-12-03T03:15:25.277Z,2.30
2022-12-03T03:17:52.553Z,2.10
2022-12-03T03:20:19.985Z,2.20
2022-12-03T03:22:47.309Z,2.20
2022-12-03T03:25:16.674Z,2.20
2022-12-03T03:27:44.034Z,2.30
2022-12-03T03:30:11.659Z,2.30
2022-12-03T03:32:39.118Z,2.30
2022-12-03T03:35:09.504Z,2.30
2022-12-03T03:37:36.815Z,2.20
2022-12-03T03:40:04.461Z,2.20
2022-12-03T03:42:31.822Z,2.20
2022-12-03T03:44:59.147Z,2.20
2022-12-03T03:47:26.597Z,2.10
2022-12-03T03:49:53.883Z,2.10
2022-12-03T03:52:22.126Z,2.10
2022-12-03T03:54:49.427Z,2.00
2022-12-03T03:57:16.819Z,2.00
2022-12-03T03:59:44.605Z,2.00
2022-12-03T04:02:20.149Z,1.90
2022-12-03T04:04:47.843Z,2.00
2022-12-03T04:07:15.874Z,2.00
2022-12-03T04:09:43.359Z,2.00
2022-12-03T04:12:30.410Z,2.00
2022-12-03T04:14:58.068Z,1.90
2022-12-03T04:17:25.468Z,2.00
2022-12-03T04:19:52.741Z,1.90
2022-12-03T04:22:38.413Z,1.90
2022-12-03T04:25:26.706Z,1.90
2022-12-03T04:28:12.769Z,1.80
2022-12-03T04:30:40.151Z,1.80
2022-12-03T04:33:25.861Z,1.80
2022-12-03T04:35:53.418Z,1.90
2022-12-03T04:38:20.802Z,1.90
2022-12-03T04:41:06.127Z,1.90
2022-12-03T04:43:34.273Z,1.80
2022-12-03T04:46:02.670Z,1.70
2022-12-03T04:48:30.358Z,1.50
2022-12-03T04:50:57.832Z,1.60
2022-12-03T04:53:25.118Z,1.60
2022-12-03T04:55:52.383Z,1.60
2022-12-03T04:58:19.689Z,1.60
2022-12-03T05:00:47.151Z,1.50
2022-12-03T05:03:14.499Z,1.50
2022-12-03T05:05:41.823Z,1.50
2022-12-03T05:08:09.157Z,1.50
2022-12-03T05:10:36.615Z,1.50
2022-12-03T05:13:03.925Z,1.60
2022-12-03T05:15:31.186Z,1.60
2022-12-03T05:17:58.465Z,1.60
2022-12-03T05:20:47.094Z,1.70
2022-12-03T05:23:20.144Z,1.60
2022-12-03T05:25:47.537Z,1.40
2022-12-03T05:28:14.858Z,1.60
2022-12-03T05:30:42.229Z,1.60
2022-12-03T05:33:09.571Z,1.70
2022-12-03T05:35:36.870Z,1.70
2022-12-03T05:38:04.152Z,1.80
2022-12-03T05:40:31.441Z,1.80
2022-12-03T05:43:01.027Z,1.90
2022-12-03T05:45:39.123Z,1.90
2022-12-03T05:48:07.929Z,1.90
2022-12-03T05:50:36.810Z,1.90
2022-12-03T05:53:16.445Z,1.90
2022-12-03T05:55:43.784Z,1.90
2022-12-03T05:58:11.952Z,1.90
2022-12-03T06:00:42.701Z,1.80
2022-12-03T06:03:10.751Z,1.70
2022-12-03T06:05:38.273Z,1.70
2022-12-03T06:08:05.601Z,1.70
2022-12-03T06:10:32.995Z,1.70
2022-12-03T06:13:00.902Z,1.70
2022-12-03T06:15:28.375Z,1.80
2022-12-03T06:17:55.792Z,1.90
2022-12-03T06:20:23.065Z,1.90
2022-12-03T06:22:50.377Z,1.90
2022-12-03T06:25:17.890Z,1.90
2022-12-03T06:27:45.166Z,1.90
2022-12-03T06:30:13.017Z,1.90
2022-12-03T06:32:40.311Z,1.90
2022-12-03T06:35:07.973Z,1.80
2022-12-03T06:37:35.259Z,1.80
2022-12-03T06:40:02.624Z,1.70
2022-12-03T06:42:29.876Z,1.70
2022-12-03T06:44:57.391Z,1.70
2022-12-03T06:47:24.730Z,1.70
2022-12-03T06:49:52.041Z,1.70
2022-12-03T06:52:19.318Z,1.70
2022-12-03T06:54:46.647Z,1.70
2022-12-03T06:57:13.977Z,1.70
2022-12-03T06:59:41.335Z,1.80
2022-12-03T07:02:09.474Z,1.90
2022-12-03T07:04:36.843Z,1.90
2022-12-03T07:07:04.161Z,1.90
2022-12-03T07:09:31.432Z,1.90
2022-12-03T07:11:58.763Z,2.00
2022-12-03T07:14:26.090Z,2.00
2022-12-03T07:16:53.415Z,2.00
2022-12-03T07:19:20.689Z,2.00
2022-12-03T07:21:48.020Z,2.00
2022-12-03T07:24:15.359Z,2.00
2022-12-03T07:26:42.725Z,2.00
2022-12-03T07:29:10.030Z,2.00
2022-12-03T07:31:37.373Z,2.00
2022-12-03T07:34:04.748Z,1.90
2022-12-03T07:36:32.038Z,1.90
2022-12-03T07:38:59.325Z,1.90
2022-12-03T07:41:26.618Z,1.90
2022-12-03T07:43:53.991Z,2.00
2022-12-03T07:46:21.334Z,1.90
2022-12-03T07:48:48.673Z,1.70
2022-12-03T07:51:15.980Z,1.70
2022-12-03T07:53:43.312Z,1.70
2022-12-03T07:56:11.033Z,1.80
2022-12-03T07:58:38.644Z,1.90
2022-12-03T08:01:06.947Z,1.90
2022-12-03T08:03:34.402Z,1.90
2022-12-03T08:06:01.828Z,1.90
2022-12-03T08:08:29.073Z,1.90
2022-12-03T08:10:56.974Z,1.90
2022-12-03T08:13:24.276Z,1.90
2022-12-03T08:15:51.997Z,1.90
2022-12-03T08:18:20.770Z,1.80
2022-12-03T08:20:51.322Z,1.60
2022-12-03T08:23:22.842Z,1.60
2022-12-03T08:25:51.328Z,1.60
2022-12-03T08:28:23.437Z,1.70
2022-12-03T08:31:26.874Z,1.70
2022-12-03T08:34:17.026Z,1.90
2022-12-03T08:36:44.511Z,2.00
2022-12-03T08:39:28.674Z,2.10
2022-12-03T08:42:19.467Z,2.20
2022-12-03T08:44:46.792Z,2.20
2022-12-03T08:47:19.748Z,2.30
2022-12-03T08:49:51.688Z,2.20
2022-12-03T08:52:20.360Z,2.20
2022-12-03T08:54:55.197Z,2.00
2022-12-03T08:57:33.233Z,2.00
2022-12-03T09:00:16.845Z,2.10
2022-12-03T09:02:46.176Z,2.10
2022-12-03T09:05:24.111Z,2.10
2022-12-03T09:07:51.517Z,2.00
2022-12-03T09:10:18.856Z,2.00
2022-12-03T09:12:46.185Z,2.00
2022-12-03T09:15:13.541Z,2.10
2022-12-03T09:17:40.891Z,2.10
2022-12-03T09:20:08.554Z,2.20
2022-12-03T09:22:35.871Z,2.00
2022-12-03T09:25:03.197Z,2.00
2022-12-03T09:27:30.498Z,2.10
2022-12-03T09:29:57.968Z,2.20
2022-12-03T09:32:25.555Z,2.20
2022-12-03T09:34:53.550Z,2.30
2022-12-03T09:37:22.202Z,2.40
2022-12-03T09:39:49.560Z,2.40
2022-12-03T09:42:16.954Z,2.40
2022-12-03T09:44:44.293Z,2.30
2022-12-03T09:47:11.611Z,2.30
2022-12-03T09:49:40.662Z,2.40
2022-12-03T09:52:08.092Z,2.40
2022-12-03T09:54:37.721Z,2.40
2022-12-03T09:57:06.877Z,2.40
2022-12-03T09:59:35.051Z,2.40
2022-12-03T10:02:02.563Z,2.30
2022-12-03T10:04:30.157Z,2.30
2022-12-03T10:06:57.727Z,2.30
2022-12-03T10:09:26.951Z,2.40
2022-12-03T10:11:57.919Z,2.40
2022-12-03T10:14:25.288Z,2.50
2022-12-03T10:16:52.702Z,2.60
2022-12-03T10:19:23.736Z,2.50
2022-12-03T10:21:51.112Z,2.60
2022-12-03T10:24:25.502Z,2.70
2022-12-03T10:26:54.212Z,2.50
2022-12-03T10:29:34.328Z,2.50
2022-12-03T10:32:09.424Z,2.50
2022-12-03T10:34:39.124Z,2.40
2022-12-03T10:37:15.601Z,2.50
2022-12-03T10:40:08.345Z,2.50
2022-12-03T10:42:37.460Z,2.50
2022-12-03T10:45:23.803Z,2.50
2022-12-03T10:48:16.292Z,2.60
2022-12-03T10:51:09.893Z,2.60
2022-12-03T10:53:38.514Z,2.60
2022-12-03T10:56:06.967Z,2.60
2022-12-03T10:58:38.930Z,2.60
2022-12-03T11:01:13.543Z,2.60
2022-12-03T11:03:40.837Z,2.60
2022-12-03T11:06:13.611Z,2.70
2022-12-03T11:09:01.417Z,2.70
2022-12-03T11:11:31.244Z,2.60
2022-12-03T11:14:02.814Z,2.70
2022-12-03T11:16:39.364Z,2.70
2022-12-03T11:19:12.793Z,2.70
2022-12-03T11:22:05.116Z,2.60
2022-12-03T11:24:33.475Z,2.60
2022-12-03T11:27:06.895Z,2.50
2022-12-03T11:29:59.895Z,2.60
2022-12-03T11:32:39.667Z,2.50
2022-12-03T11:35:36.509Z,2.60
2022-12-03T11:38:38.023Z,2.50
2022-12-03T11:41:08.438Z,2.40
2022-12-03T11:43:56.753Z,2.40
2022-12-03T11:46:28.699Z,2.30
2022-12-03T11:48:57.283Z,2.30
2022-12-03T11:51:25.780Z,2.40
2022-12-03T11:53:54.481Z,2.50
2022-12-03T11:56:26.163Z,2.60
2022-12-03T11:59:01.279Z,2.70
2022-12-03T12:01:38.772Z,2.80
2022-12-03T12:04:07.566Z,2.80
2022-12-03T12:06:42.549Z,2.70
2022-12-03T12:09:10.303Z,2.70
2022-12-03T12:11:43.520Z,2.50
2022-12-03T12:14:12.082Z,2.40
2022-12-03T12:16:52.975Z,2.30
2022-12-03T12:19:43.206Z,2.30
2022-12-03T12:22:29.940Z,2.40
2022-12-03T12:24:58.679Z,2.40
2022-12-03T12:27:45.096Z,2.40
2022-12-03T12:30:19.899Z,2.50
2022-12-03T12:33:01.593Z,2.50
2022-12-03T12:35:32.557Z,2.50
2022-12-03T12:38:20.623Z,2.50
2022-12-03T12:40:49.423Z,2.40
2022-12-03T12:43:24.155Z,2.40
2022-12-03T12:46:18.564Z,2.30
2022-12-03T12:48:48.313Z,2.30
2022-12-03T12:51:20.255Z,2.40
2022-12-03T12:53:47.841Z,2.40
2022-12-03T12:56:30.022Z,2.40
2022-12-03T12:58:59.294Z,2.50
2022-12-03T13:01:29.173Z,2.50
2022-12-03T13:03:56.608Z,2.50
2022-12-03T13:06:28.779Z,2.50
2022-12-03T13:08:56.466Z,2.50
2022-12-03T13:11:30.061Z,2.50
2022-12-03T13:13:57.419Z,2.50
2022-12-03T13:16:33.907Z,2.60
2022-12-03T13:19:01.632Z,2.50
2022-12-03T13:21:38.483Z,2.40
2022-12-03T13:24:32.324Z,2.30
2022-12-03T13:27:22.975Z,2.30
2022-12-03T13:29:56.258Z,2.30
2022-12-03T13:32:27.695Z,2.30
2022-12-03T13:35:07.982Z,2.40
2022-12-03T13:37:35.309Z,2.40
2022-12-03T13:40:18.732Z,2.30
2022-12-03T13:42:46.594Z,2.40
2022-12-03T13:45:13.929Z,2.30
2022-12-03T13:47:48.813Z,2.10
2022-12-03T13:50:51.788Z,2.10
2022-12-03T13:53:23.307Z,2.10
2022-12-03T13:56:14.524Z,2.10
2022-12-03T13:58:41.872Z,2.10
2022-12-03T14:01:09.500Z,2.20
2022-12-03T14:03:36.867Z,2.20
2022-12-03T14:06:04.275Z,2.20
2022-12-03T14:08:31.854Z,2.20
2022-12-03T14:11:00.857Z,2.10
2022-12-03T14:13:28.430Z,2.20
2022-12-03T14:15:55.786Z,2.20
2022-12-03T14:18:23.133Z,2.20
2022-12-03T14:20:50.529Z,2.20
2022-12-03T14:23:17.871Z,2.30
2022-12-03T14:25:45.191Z,2.30
2022-12-03T14:28:12.761Z,2.30
2022-12-03T14:30:40.096Z,2.30
2022-12-03T14:33:07.629Z,2.20
2022-12-03T14:35:36.259Z,2.10
2022-12-03T14:38:03.548Z,2.00
2022-12-03T14:40:31.210Z,2.10
2022-12-03T14:42:58.532Z,2.10
2022-12-03T14:45:28.523Z,2.10
2022-12-03T14:47:55.990Z,2.10
2022-12-03T14:50:23.302Z,2.00
2022-12-03T14:52:50.581Z,2.10
2022-12-03T14:55:17.935Z,2.10
2022-12-03T14:57:45.320Z,2.00
2022-12-03T15:00:13.139Z,2.00
2022-12-03T15:02:40.597Z,2.00
2022-12-03T15:05:08.134Z,2.00
2022-12-03T15:07:35.637Z,2.00
2022-12-03T15:10:03.123Z,2.00
2022-12-03T15:12:31.495Z,1.90
2022-12-03T15:14:58.892Z,2.00
2022-12-03T15:17:31.624Z,1.90
2022-12-03T15:19:59.548Z,1.90
2022-12-03T15:22:26.885Z,1.90
2022-12-03T15:24:54.216Z,1.90
2022-12-03T15:27:21.516Z,1.80
2022-12-03T15:29:48.847Z,1.80
2022-12-03T15:32:16.141Z,1.80
2022-12-03T15:34:43.649Z,1.90
2022-12-03T15:37:10.988Z,1.80
2022-12-03T15:39:41.300Z,1.80
2022-12-03T15:42:12.391Z,1.70
2022-12-03T15:44:39.759Z,1.70
2022-12-03T15:47:07.037Z,1.70
2022-12-03T15:49:34.369Z,1.70
2022-12-03T15:52:01.737Z,1.60
2022-12-03T15:54:29.074Z,1.60
2022-12-03T15:56:57.568Z,1.60
2022-12-03T15:59:25.388Z,1.60
2022-12-03T16:01:52.757Z,1.70
2022-12-03T16:04:20.118Z,1.60
2022-12-03T16:06:47.536Z,1.70
2022-12-03T16:09:14.843Z,1.80
2022-12-03T16:11:42.184Z,1.70
2022-12-03T16:14:09.478Z,1.80
2022-12-03T16:16:36.883Z,1.80
2022-12-03T16:19:04.215Z,1.80
2022-12-03T16:21:31.527Z,1.80
2022-12-03T16:24:00.327Z,1.90
2022-12-03T16:26:27.626Z,1.90
2022-12-03T16:28:54.922Z,1.90
2022-12-03T16:31:22.340Z,1.90
2022-12-03T16:33:49.910Z,1.90
2022-12-03T16:36:17.207Z,1.90
2022-12-03T16:38:44.513Z,2.00
2022-12-03T16:41:11.801Z,1.90
2022-12-03T16:43:39.118Z,1.90
2022-12-03T16:46:18.770Z,1.80
2022-12-03T16:48:47.663Z,1.80
2022-12-03T16:51:15.198Z,1.70
2022-12-03T16:53:42.509Z,1.70
2022-12-03T16:56:09.859Z,1.70
2022-12-03T16:58:37.167Z,1.70
2022-12-03T17:01:04.658Z,1.70
2022-12-03T17:03:34.054Z,1.70
2022-12-03T17:06:01.984Z,1.70
2022-12-03T17:08:29.306Z,1.70
2022-12-03T17:10:56.743Z,1.70
2022-12-03T17:13:24.215Z,1.70
2022-12-03T17:15:51.522Z,1.70
2022-12-03T17:18:18.911Z,1.70
2022-12-03T17:20:46.201Z,1.70
2022-12-03T17:23:13.581Z,1.70
2022-12-03T17:25:40.844Z,1.70
2022-12-03T17:28:08.146Z,1.70
2022-12-03T17:30:37.743Z,1.70
2022-12-03T17:33:05.181Z,1.70
2022-12-03T17:35:32.606Z,1.50
2022-12-03T17:37:59.934Z,1.50
2022-12-03T17:40:27.274Z,1.50
2022-12-03T17:42:54.522Z,1.50
2022-12-03T17:45:21.826Z,1.60
2022-12-03T17:47:49.121Z,1.60
2022-12-03T17:50:16.438Z,1.70
2022-12-03T17:52:43.747Z,1.70
2022-12-03T17:55:15.826Z,1.70
2022-12-03T17:57:48.768Z,1.70
2022-12-03T18:00:16.309Z,1.70
2022-12-03T18:02:43.633Z,1.70
2022-12-03T18:05:11.025Z,1.70
2022-12-03T18:07:38.354Z,1.70
2022-12-03T18:10:06.327Z,1.80
2022-12-03T18:12:33.655Z,1.80
2022-12-03T18:15:00.960Z,1.80
2022-12-03T18:17:28.272Z,1.80
2022-12-03T18:19:55.822Z,1.80
2022-12-03T18:22:23.264Z,1.80
2022-12-03T18:24:51.866Z,1.90
2022-12-03T18:27:22.971Z,1.80
2022-12-03T18:29:50.246Z,1.80
2022-12-03T18:32:28.357Z,1.80
2022-12-03T18:34:57.280Z,1.90
2022-12-03T18:37:28.392Z,1.90
2022-12-03T18:39:56.063Z,1.90
2022-12-03T18:42:23.760Z,1.80
2022-12-03T18:44:52.007Z,1.80
2022-12-03T18:47:20.845Z,1.70
2022-12-03T18:49:48.269Z,1.60
2022-12-03T18:52:17.110Z,1.60
2022-12-03T18:54:44.566Z,1.60
2022-12-03T18:57:11.922Z,1.50
2022-12-03T18:59:39.498Z,1.60
2022-12-03T19:02:07.410Z,1.60
2022-12-03T19:04:34.722Z,1.50
2022-12-03T19:07:03.647Z,1.50
2022-12-03T19:09:31.137Z,1.60
2022-12-03T19:11:58.401Z,1.60
2022-12-03T19:14:25.799Z,1.50
2022-12-03T19:16:53.180Z,1.50
2022-12-03T19:19:20.576Z,1.50
2022-12-03T19:21:47.878Z,1.50
2022-12-03T19:24:30.604Z,1.50
2022-12-03T19:26:57.910Z,1.60
2022-12-03T19:29:25.282Z,1.50
2022-12-03T19:31:52.714Z,1.60
2022-12-03T19:34:20.184Z,1.60
2022-12-03T19:36:47.877Z,1.60
2022-12-03T19:39:15.154Z,1.60
2022-12-03T19:41:44.185Z,1.60
2022-12-03T19:44:13.150Z,1.70
2022-12-03T19:46:40.563Z,1.60
2022-12-03T19:49:08.002Z,1.60
2022-12-03T19:51:36.034Z,1.60
2022-12-03T19:54:07.439Z,1.60
2022-12-03T19:56:34.811Z,1.60
2022-12-03T19:59:02.360Z,1.50
2022-12-03T20:01:31.213Z,1.50
2022-12-03T20:03:59.464Z,1.60
2022-12-03T20:06:28.280Z,1.60
2022-12-03T20:09:00.459Z,1.60
2022-12-03T20:11:29.268Z,1.60
2022-12-03T20:14:00.999Z,1.50
2022-12-03T20:16:28.814Z,1.50
2022-12-03T20:19:01.142Z,1.50
2022-12-03T20:21:29.944Z,1.40
2022-12-03T20:23:57.331Z,1.40
2022-12-03T20:26:24.676Z,1.50
2022-12-03T20:28:53.796Z,1.60
2022-12-03T20:31:22.206Z,1.60
2022-12-03T20:33:51.671Z,1.60
2022-12-03T20:36:20.644Z,1.40
2022-12-03T20:38:47.955Z,1.40
2022-12-03T20:41:16.816Z,1.50
2022-12-03T20:43:44.382Z,1.50
2022-12-03T20:46:12.629Z,1.40
2022-12-03T20:48:40.253Z,1.40
2022-12-03T20:51:09.506Z,1.50
2022-12-03T20:53:36.900Z,1.50
2022-12-03T20:56:04.616Z,1.50
2022-12-03T20:58:32.053Z,1.50
2022-12-03T21:01:14.039Z,1.60
2022-12-03T21:03:43.548Z,1.50
2022-12-03T21:06:11.435Z,1.50
2022-12-03T21:08:42.690Z,1.50
2022-12-03T21:11:11.654Z,1.50
2022-12-03T21:13:43.685Z,1.50
2022-12-03T21:16:13.756Z,1.60
2022-12-03T21:18:41.218Z,1.50
2022-12-03T21:21:09.070Z,1.50
2022-12-03T21:23:36.422Z,1.50
2022-12-03T21:26:11.102Z,1.50
2022-12-03T21:28:39.078Z,1.60
2022-12-03T21:31:08.159Z,1.50
2022-12-03T21:33:35.787Z,1.50
2022-12-03T21:36:03.258Z,1.50
2022-12-03T21:38:30.738Z,1.50
2022-12-03T21:40:58.124Z,1.60
2022-12-03T21:43:25.554Z,1.50
2022-12-03T21:45:52.899Z,1.40
2022-12-03T21:48:20.297Z,1.50
2022-12-03T21:51:09.827Z,1.50
2022-12-03T21:53:42.006Z,1.60
2022-12-03T21:56:12.600Z,1.70
2022-12-03T21:58:40.080Z,1.80
2022-12-03T22:01:11.828Z,1.70
2022-12-03T22:03:39.368Z,1.60
2022-12-03T22:06:06.946Z,1.70
2022-12-03T22:08:34.241Z,1.70
2022-12-03T22:11:09.080Z,1.70
2022-12-03T22:13:37.781Z,1.70
2022-12-03T22:16:09.873Z,1.80
2022-12-03T22:18:37.336Z,1.80
2022-12-03T22:21:05.926Z,1.80
2022-12-03T22:23:33.410Z,1.80
2022-12-03T22:26:02.976Z,1.80
2022-12-03T22:28:30.388Z,1.70
2022-12-03T22:30:57.838Z,1.70
2022-12-03T22:33:25.264Z,1.80
2022-12-03T22:35:57.025Z,1.80
2022-12-03T22:38:24.596Z,1.70
2022-12-03T22:40:52.108Z,1.70
2022-12-03T22:43:19.551Z,1.80
2022-12-03T22:45:46.914Z,1.80
2022-12-03T22:48:14.813Z,1.80
2022-12-03T22:50:43.995Z,1.80
2022-12-03T22:53:11.902Z,1.90
2022-12-03T22:55:39.364Z,1.90
2022-12-03T22:58:06.763Z,1.90
2022-12-03T23:00:39.964Z,1.90
2022-12-03T23:03:07.534Z,2.00
2022-12-03T23:05:36.921Z,2.00
2022-12-03T23:08:14.865Z,2.00
2022-12-03T23:10:43.366Z,1.80
2022-12-03T23:13:10.869Z,1.80
2022-12-03T23:15:38.710Z,1.80
2022-12-03T23:18:06.036Z,1.80
2022-12-03T23:20:33.331Z,1.90
2022-12-03T23:23:00.661Z,1.80
2022-12-03T23:25:27.998Z,1.70
2022-12-03T23:27:55.304Z,1.70
2022-12-03T23:30:22.710Z,1.80
2022-12-03T23:32:49.975Z,1.80
2022-12-03T23:35:17.374Z,1.80
2022-12-03T23:37:44.707Z,1.80
2022-12-03T23:40:12.520Z,1.80
2022-12-03T23:42:39.819Z,1.80
2022-12-03T23:45:07.849Z,1.80
2022-12-03T23:47:35.203Z,1.80
2022-12-03T23:50:03.542Z,1.80
2022-12-03T23:52:30.870Z,1.80
2022-12-03T23:54:58.135Z,1.80
2022-12-03T23:57:25.430Z,1.80
2022-12-03T23:59:53.103Z,1.60
